Time;durP1;ratioP1;P1;durP2;ratioP2;P2;SDS_P1;SDS_P2;PMS_P1;PMS_P2;Temp;Humidity;BMP_temperature;BMP_pressure;BME280_temperature;BME280_humidity;BME280_pressure;Samples;Min_cycle;Max_cycle;Signal;HPM_P1;HPM_P2
2022/09/26 00:01:43;;;;;;;5.50;3.97;;;13.80;99.90;;;;;;5085524;28;20217;-36
2022/09/26 00:04:18;;;;;;;5.93;3.53;;;13.80;99.90;;;;;;5087283;28;20341;-35
2022/09/26 00:06:53;;;;;;;5.87;3.20;;;13.80;99.90;;;;;;5086359;28;20306;-37
2022/09/26 00:09:25;;;;;;;3.50;3.17;;;13.80;99.90;;;;;;5087388;28;20223;-34
2022/09/26 00:11:55;;;;;;;5.27;2.90;;;13.80;99.90;;;;;;5085666;28;20229;-37
2022/09/26 00:14:26;;;;;;;5.43;2.77;;;13.80;99.90;;;;;;5087333;28;20263;-34
2022/09/26 00:16:53;;;;;;;3.13;2.80;;;13.80;99.90;;;;;;5087368;28;20203;-35
2022/09/26 00:19:24;;;;;;;4.93;3.20;;;13.80;99.90;;;;;;5087231;28;20231;-35
2022/09/26 00:21:51;;;;;;;4.87;3.27;;;13.80;99.90;;;;;;5085258;28;20733;-35
2022/09/26 00:24:18;;;;;;;5.13;2.90;;;13.80;99.90;;;;;;5087320;28;20234;-35
2022/09/26 00:26:45;;;;;;;4.43;3.37;;;13.80;99.90;;;;;;5087205;28;20483;-35
2022/09/26 00:29:15;;;;;;;5.10;3.43;;;13.90;99.90;;;;;;5087159;28;20958;-35
2022/09/26 00:31:45;;;;;;;4.70;3.20;;;13.90;99.90;;;;;;5085069;28;20203;-35
2022/09/26 00:34:19;;;;;;;4.57;3.10;;;13.90;99.90;;;;;;5087270;28;20306;-35
2022/09/26 00:36:49;;;;;;;7.03;3.27;;;13.90;99.90;;;;;;5085780;28;20208;-35
2022/09/26 00:39:16;;;;;;;5.13;3.07;;;13.80;99.90;;;;;;5086806;28;20207;-35
2022/09/26 00:41:44;;;;;;;8.37;3.37;;;13.90;99.90;;;;;;5084834;28;20736;-36
2022/09/26 00:44:47;;;;;;;5.10;3.00;;;13.90;99.90;;;;;;5086912;28;20260;-35
2022/09/26 00:47:41;;;;;;;6.43;3.53;;;13.90;99.90;;;;;;5086740;28;20194;-35
2022/09/26 00:50:37;;;;;;;6.13;3.60;;;13.90;99.90;;;;;;5084904;28;20215;-35
2022/09/26 00:53:08;;;;;;;6.43;3.63;;;13.90;99.90;;;;;;5080787;28;20212;-35
2022/09/26 00:55:42;;;;;;;4.57;3.33;;;13.80;99.90;;;;;;5087119;28;20203;-34
2022/09/26 00:58:21;;;;;;;5.13;3.87;;;13.80;99.90;;;;;;5082711;28;20590;-34
2022/09/26 01:00:51;;;;;;;5.13;3.60;;;13.80;99.90;;;;;;5070364;28;20264;-34
2022/09/26 01:03:22;;;;;;;6.60;3.50;;;13.80;99.90;;;;;;5073226;28;20254;-34
2022/09/26 01:05:52;;;;;;;4.63;3.90;;;13.80;99.90;;;;;;5084830;28;20318;-36
2022/09/26 01:08:25;;;;;;;5.13;3.60;;;13.80;99.90;;;;;;5071921;28;20211;-35
2022/09/26 01:10:55;;;;;;;6.77;4.10;;;13.80;99.90;;;;;;5085202;28;20191;-34
2022/09/26 01:13:26;;;;;;;6.03;3.53;;;13.80;99.90;;;;;;5084498;28;20195;-34
2022/09/26 01:15:53;;;;;;;5.50;3.87;;;13.80;99.90;;;;;;5099844;28;20218;-35
2022/09/26 01:18:20;;;;;;;5.27;4.17;;;13.80;99.90;;;;;;5084258;28;20226;-34
2022/09/26 01:21:10;;;;;;;4.20;3.80;;;13.80;99.90;;;;;;5084798;28;20199;-34
2022/09/26 01:23:48;;;;;;;7.03;3.57;;;13.80;99.90;;;;;;5085571;28;20713;-34
2022/09/26 01:26:37;;;;;;;6.33;4.07;;;13.80;99.90;;;;;;5086035;28;20228;-35
2022/09/26 01:29:31;;;;;;;5.03;3.63;;;13.80;99.90;;;;;;5073098;28;20577;-37
2022/09/26 01:35:58;;;;;;;6.97;3.80;;;13.80;99.90;;;;;;5086082;28;20215;-34
2022/09/26 01:38:55;;;;;;;5.93;3.90;;;13.80;99.90;;;;;;5056719;28;20482;-34
2022/09/26 01:41:31;;;;;;;5.73;4.10;;;13.80;99.90;;;;;;5073539;28;20229;-35
2022/09/26 01:44:37;;;;;;;4.50;3.90;;;13.70;99.90;;;;;;5084217;28;20230;-35
2022/09/26 01:47:13;;;;;;;5.70;3.77;;;13.70;99.90;;;;;;5085086;28;20214;-35
2022/09/26 01:50:05;;;;;;;6.20;4.37;;;13.70;99.90;;;;;;5085426;28;20209;-35
2022/09/26 01:52:37;;;;;;;8.13;4.60;;;13.70;99.90;;;;;;5082616;28;20205;-35
2022/09/26 01:55:11;;;;;;;9.00;5.10;;;13.70;99.90;;;;;;5085672;28;20293;-35
2022/09/26 01:58:00;;;;;;;7.17;4.60;;;13.70;99.90;;;;;;5085343;28;20214;-35
2022/09/26 02:00:31;;;;;;;8.43;5.07;;;13.70;99.90;;;;;;5083745;28;20218;-35
2022/09/26 02:03:02;;;;;;;8.13;5.17;;;13.70;99.90;;;;;;5085985;28;20609;-35
2022/09/26 02:05:34;;;;;;;7.00;5.07;;;13.70;99.90;;;;;;5085152;28;20624;-35
2022/09/26 02:08:11;;;;;;;6.17;4.57;;;13.70;99.90;;;;;;5084675;28;20218;-35
2022/09/26 02:10:48;;;;;;;5.90;4.60;;;13.70;99.90;;;;;;5085067;28;20244;-35
2022/09/26 02:13:23;;;;;;;6.30;4.57;;;13.70;99.90;;;;;;5084583;28;20588;-35
2022/09/26 02:15:58;;;;;;;7.03;4.50;;;13.70;99.90;;;;;;5083121;28;20213;-35
2022/09/26 02:18:41;;;;;;;5.20;4.40;;;13.70;99.90;;;;;;5077892;28;20317;-35
2022/09/26 02:21:19;;;;;;;6.23;4.27;;;13.70;99.90;;;;;;5083402;28;20614;-35
2022/09/26 02:23:51;;;;;;;5.57;3.97;;;13.70;99.90;;;;;;5085141;28;20222;-35
2022/09/26 02:26:24;;;;;;;7.07;3.90;;;13.70;99.90;;;;;;5084460;28;20223;-35
2022/09/26 02:28:51;;;;;;;5.87;4.10;;;13.70;99.90;;;;;;5083623;28;20194;-36
2022/09/26 02:31:23;;;;;;;4.97;3.33;;;13.70;99.90;;;;;;5083813;28;20203;-35
2022/09/26 02:33:52;;;;;;;8.90;3.23;;;13.70;99.90;;;;;;5084824;28;20701;-38
2022/09/26 02:36:20;;;;;;;6.77;3.03;;;13.70;99.90;;;;;;5082768;28;20226;-35
2022/09/26 02:38:48;;;;;;;7.10;3.30;;;13.70;99.90;;;;;;5085150;28;20206;-35
2022/09/26 02:41:36;;;;;;;7.47;3.03;;;13.70;99.90;;;;;;5083618;28;20219;-35
2022/09/26 02:44:30;;;;;;;8.30;3.03;;;13.70;99.90;;;;;;5083620;28;20225;-35
2022/09/26 02:47:27;;;;;;;7.33;3.23;;;13.70;99.90;;;;;;5083175;28;20198;-35
2022/09/26 02:50:09;;;;;;;7.20;3.27;;;13.70;99.90;;;;;;5064444;28;20223;-35
2022/09/26 02:52:56;;;;;;;7.47;3.57;;;13.70;99.90;;;;;;5077423;28;20574;-35
2022/09/26 02:55:29;;;;;;;6.93;3.57;;;13.70;99.90;;;;;;5084953;28;20295;-35
2022/09/26 02:58:12;;;;;;;7.40;3.70;;;13.70;99.90;;;;;;5082709;28;20601;-35
2022/09/26 03:00:51;;;;;;;8.57;4.47;;;13.70;99.90;;;;;;5085040;28;20297;-36
2022/09/26 03:03:33;;;;;;;9.73;4.30;;;13.70;99.90;;;;;;5083677;28;20194;-36
2022/09/26 03:06:06;;;;;;;8.83;4.00;;;13.70;99.90;;;;;;5083740;28;20199;-35
2022/09/26 03:08:39;;;;;;;6.80;4.10;;;13.70;99.90;;;;;;5084717;28;20206;-35
2022/09/26 03:11:15;;;;;;;8.27;4.17;;;13.70;99.90;;;;;;5085660;28;20210;-35
2022/09/26 03:13:44;;;;;;;10.23;4.23;;;13.70;99.90;;;;;;5084333;28;20210;-35
2022/09/26 03:16:15;;;;;;;7.53;4.27;;;13.70;99.90;;;;;;5084220;28;20285;-35
2022/09/26 03:18:56;;;;;;;8.20;4.07;;;13.70;99.90;;;;;;5083093;28;20330;-37
2022/09/26 03:21:24;;;;;;;13.83;4.43;;;13.70;99.90;;;;;;5083408;28;20209;-36
2022/09/26 03:23:51;;;;;;;6.60;4.00;;;13.70;99.90;;;;;;5087912;28;20222;-35
2022/09/26 03:26:25;;;;;;;6.30;3.47;;;13.70;99.90;;;;;;5087998;28;20207;-35
2022/09/26 03:28:55;;;;;;;7.47;3.30;;;13.70;99.90;;;;;;5088305;28;20187;-42
2022/09/26 03:31:24;;;;;;;6.33;3.30;;;13.70;99.90;;;;;;5088429;28;20607;-37
2022/09/26 03:33:51;;;;;;;6.93;2.80;;;13.70;99.90;;;;;;5088191;28;20267;-35
2022/09/26 03:36:21;;;;;;;4.50;2.47;;;13.70;99.90;;;;;;5087479;28;20207;-35
2022/09/26 03:38:49;;;;;;;6.97;2.47;;;13.70;99.90;;;;;;5088619;28;20198;-35
2022/09/26 03:41:16;;;;;;;6.17;2.30;;;13.70;99.90;;;;;;5088571;28;20215;-35
2022/09/26 03:43:43;;;;;;;6.43;2.10;;;13.70;99.90;;;;;;5088726;28;20229;-35
2022/09/26 03:46:14;;;;;;;5.27;2.03;;;13.70;99.90;;;;;;5087635;28;20191;-37
2022/09/26 03:48:44;;;;;;;4.83;2.00;;;13.70;99.90;;;;;;5086677;28;20195;-35
2022/09/26 03:51:15;;;;;;;4.43;1.63;;;13.70;99.90;;;;;;5087707;28;20207;-36
2022/09/26 03:53:46;;;;;;;5.00;1.83;;;13.70;99.90;;;;;;5086163;28;20230;-36
2022/09/26 03:56:16;;;;;;;4.83;1.87;;;13.70;99.90;;;;;;5086946;28;20203;-34
2022/09/26 03:58:47;;;;;;;5.67;1.70;;;13.70;99.90;;;;;;5067474;28;20203;-35
2022/09/26 04:01:18;;;;;;;3.90;1.70;;;13.70;99.90;;;;;;5066307;28;20689;-35
2022/09/26 04:03:46;;;;;;;4.53;1.60;;;13.70;99.90;;;;;;5066504;28;20277;-35
2022/09/26 04:06:22;;;;;;;2.23;1.43;;;13.70;99.90;;;;;;5069057;28;20191;-36
2022/09/26 04:08:51;;;;;;;3.63;1.73;;;13.70;99.90;;;;;;5086978;28;20702;-35
2022/09/26 04:11:25;;;;;;;4.63;1.40;;;13.80;99.90;;;;;;5088416;28;20695;-35
2022/09/26 04:13:55;;;;;;;4.83;1.40;;;13.80;99.90;;;;;;5086758;28;20202;-36
2022/09/26 04:16:25;;;;;;;3.37;1.40;;;13.80;99.90;;;;;;5087109;28;20233;-35
2022/09/26 04:18:56;;;;;;;5.13;1.53;;;13.80;99.90;;;;;;5084754;28;20246;-35
2022/09/26 04:21:25;;;;;;;4.73;1.63;;;13.80;99.90;;;;;;5086780;28;20206;-36
2022/09/26 04:23:53;;;;;;;4.07;1.73;;;13.80;99.90;;;;;;5081895;28;20317;-35
2022/09/26 04:26:24;;;;;;;2.87;1.20;;;13.70;99.90;;;;;;5086617;28;20191;-35
2022/09/26 04:28:54;;;;;;;5.57;1.60;;;13.80;99.90;;;;;;5087303;28;20540;-35
2022/09/26 04:31:23;;;;;;;4.37;1.43;;;13.80;99.90;;;;;;5086351;28;20203;-34
2022/09/26 04:33:50;;;;;;;7.23;1.83;;;13.80;99.90;;;;;;5087257;28;20191;-36
2022/09/26 04:36:17;;;;;;;3.07;1.60;;;13.80;99.90;;;;;;5086369;28;20234;-36
2022/09/26 04:38:47;;;;;;;2.37;1.30;;;13.80;99.90;;;;;;5086182;28;20203;-37
2022/09/26 04:41:17;;;;;;;5.50;1.67;;;13.80;99.90;;;;;;5085873;28;20209;-36
2022/09/26 04:43:45;;;;;;;5.10;1.70;;;13.80;99.90;;;;;;5087846;28;20202;-36
2022/09/26 04:46:15;;;;;;;4.97;1.57;;;13.80;99.90;;;;;;5087563;28;20202;-36
2022/09/26 04:48:50;;;;;;;4.87;1.50;;;13.80;99.90;;;;;;5065286;28;20359;-36
2022/09/26 04:51:19;;;;;;;2.47;1.53;;;13.70;99.90;;;;;;5066673;28;20212;-36
2022/09/26 04:53:46;;;;;;;6.03;1.50;;;13.70;99.90;;;;;;5085738;28;20206;-36
2022/09/26 04:56:20;;;;;;;2.90;1.47;;;13.70;99.90;;;;;;5086517;28;20244;-36
2022/09/26 04:58:51;;;;;;;2.83;1.50;;;13.80;99.90;;;;;;5085483;28;20297;-37
2022/09/26 05:01:23;;;;;;;2.83;1.53;;;13.70;99.90;;;;;;5073543;28;20207;-34
2022/09/26 05:03:57;;;;;;;2.83;1.50;;;13.80;99.90;;;;;;5066258;28;20206;-35
2022/09/26 05:06:29;;;;;;;2.80;1.60;;;13.80;99.90;;;;;;5067034;28;20636;-34
2022/09/26 05:08:57;;;;;;;6.47;1.73;;;13.80;99.90;;;;;;5079576;28;20207;-34
2022/09/26 05:11:24;;;;;;;2.93;1.57;;;13.80;99.90;;;;;;5074718;28;20210;-37
2022/09/26 05:13:53;;;;;;;7.27;1.93;;;13.70;99.90;;;;;;5065991;28;20303;-34
2022/09/26 05:16:23;;;;;;;4.77;1.57;;;13.80;99.90;;;;;;5066114;28;20316;-34
2022/09/26 05:18:50;;;;;;;5.80;1.67;;;13.70;99.90;;;;;;5080486;28;20226;-37
2022/09/26 05:21:20;;;;;;;5.50;1.60;;;13.70;99.90;;;;;;5076438;28;20256;-37
2022/09/26 05:26:41;;;;;;;3.53;1.40;;;13.70;99.90;;;;;;5067197;28;20234;-36
2022/09/26 05:29:11;;;;;;;4.30;1.60;;;13.70;99.90;;;;;;5078994;28;20221;-35
2022/09/26 05:31:39;;;;;;;5.97;1.50;;;13.70;99.90;;;;;;5066009;28;20265;-34
2022/09/26 05:34:09;;;;;;;4.37;1.87;;;13.70;99.90;;;;;;5065499;28;20304;-34
2022/09/26 05:36:43;;;;;;;3.97;1.60;;;13.70;99.90;;;;;;5067618;28;20554;-35
2022/09/26 05:41:58;;;;;;;3.20;1.90;;;13.70;99.90;;;;;;5086095;28;20203;-35
2022/09/26 05:44:29;;;;;;;4.70;1.87;;;13.70;99.90;;;;;;5084841;28;20717;-35
2022/09/26 05:46:57;;;;;;;4.73;1.77;;;13.70;99.90;;;;;;5086616;28;20202;-34
2022/09/26 05:49:25;;;;;;;4.47;1.50;;;13.60;99.90;;;;;;5073500;28;20206;-35
2022/09/26 05:51:56;;;;;;;2.93;1.60;;;13.60;99.90;;;;;;5072326;28;20225;-35
2022/09/26 05:54:23;;;;;;;4.37;2.10;;;13.60;99.90;;;;;;5076720;28;20206;-35
2022/09/26 05:56:50;;;;;;;3.60;1.67;;;13.60;99.90;;;;;;5079770;28;20215;-35
2022/09/26 05:59:17;;;;;;;4.90;1.70;;;13.70;99.90;;;;;;5080485;28;20209;-34
2022/09/26 06:01:47;;;;;;;6.57;1.80;;;13.60;99.90;;;;;;5084504;28;20221;-35
2022/09/26 06:04:16;;;;;;;5.00;1.90;;;13.60;99.90;;;;;;5085071;28;20579;-35
2022/09/26 06:06:47;;;;;;;5.60;2.00;;;13.60;99.90;;;;;;5081593;28;20234;-35
2022/09/26 06:09:14;;;;;;;7.17;1.90;;;13.60;99.90;;;;;;5082747;28;20325;-34
2022/09/26 06:11:44;;;;;;;10.70;2.30;;;13.60;99.90;;;;;;5074384;28;20201;-35
2022/09/26 06:14:13;;;;;;;5.23;1.83;;;13.60;99.90;;;;;;5084880;28;20207;-34
2022/09/26 06:16:41;;;;;;;6.13;1.60;;;13.60;99.90;;;;;;5085451;28;20193;-34
2022/09/26 06:19:15;;;;;;;5.70;1.90;;;13.70;99.90;;;;;;5081350;28;20771;-35
2022/09/26 06:21:50;;;;;;;4.17;1.90;;;13.70;99.90;;;;;;5082977;28;20202;-34
2022/09/26 06:24:22;;;;;;;5.27;2.00;;;13.70;99.90;;;;;;5080891;28;20294;-35
2022/09/26 06:26:51;;;;;;;6.77;1.97;;;13.70;99.90;;;;;;5071759;28;20225;-35
2022/09/26 06:29:23;;;;;;;4.67;1.60;;;13.70;99.90;;;;;;5075034;28;20206;-35
2022/09/26 06:31:52;;;;;;;6.53;1.87;;;13.70;99.90;;;;;;5068194;28;20756;-35
2022/09/26 06:34:20;;;;;;;3.93;1.67;;;13.70;99.90;;;;;;5074192;28;20586;-34
2022/09/26 06:36:47;;;;;;;4.97;1.67;;;13.70;99.90;;;;;;5085207;28;20199;-35
2022/09/26 06:39:14;;;;;;;5.87;1.60;;;13.70;99.90;;;;;;5086249;28;20187;-34
2022/09/26 06:41:46;;;;;;;4.70;1.67;;;13.70;99.90;;;;;;5084257;28;20202;-34
2022/09/26 06:44:18;;;;;;;3.37;1.83;;;13.70;99.90;;;;;;5083502;28;20198;-35
2022/09/26 06:46:51;;;;;;;4.97;1.53;;;13.70;99.90;;;;;;5080058;28;20195;-35
2022/09/26 06:49:21;;;;;;;3.57;1.90;;;13.70;99.90;;;;;;5079513;28;20320;-36
2022/09/26 06:51:50;;;;;;;3.80;1.70;;;13.70;99.90;;;;;;5081160;28;20203;-35
2022/09/26 06:54:22;;;;;;;5.03;1.97;;;13.80;99.90;;;;;;5085266;28;20608;-35
2022/09/26 06:56:49;;;;;;;3.77;1.57;;;13.80;99.90;;;;;;5086061;28;20214;-35
2022/09/26 06:59:19;;;;;;;5.27;1.90;;;13.80;99.90;;;;;;5087270;28;20206;-35
2022/09/26 07:01:49;;;;;;;6.03;1.90;;;13.80;99.90;;;;;;5083876;28;20997;-36
2022/09/26 07:04:17;;;;;;;3.20;1.53;;;13.80;99.90;;;;;;5083443;28;20476;-35
2022/09/26 07:06:44;;;;;;;5.13;1.57;;;13.80;99.90;;;;;;5086716;28;20252;-35
2022/09/26 07:09:14;;;;;;;4.97;1.70;;;13.80;99.90;;;;;;5088076;28;20207;-35
2022/09/26 07:11:45;;;;;;;3.93;1.43;;;13.80;99.90;;;;;;5085949;28;20199;-34
2022/09/26 07:14:36;;;;;;;2.70;1.30;;;13.80;99.90;;;;;;5084326;28;20210;-35
2022/09/26 07:17:05;;;;;;;4.57;1.37;;;13.90;99.90;;;;;;5066741;28;20207;-35
2022/09/26 07:19:33;;;;;;;3.97;1.53;;;13.90;99.90;;;;;;5085726;28;20252;-36
2022/09/26 07:22:04;;;;;;;4.20;1.50;;;13.90;99.90;;;;;;5087625;28;20199;-35
2022/09/26 07:24:33;;;;;;;9.17;2.47;;;14.00;99.90;;;;;;5081090;28;20599;-35
2022/09/26 07:27:01;;;;;;;5.17;1.70;;;14.00;99.90;;;;;;5083706;28;20572;-35
2022/09/26 07:29:33;;;;;;;5.77;1.60;;;14.10;99.90;;;;;;5066832;28;20204;-36
2022/09/26 07:32:00;;;;;;;7.30;1.63;;;14.10;99.90;;;;;;5070358;28;20498;-36
2022/09/26 07:34:32;;;;;;;3.27;1.40;;;14.10;99.90;;;;;;5070693;28;20227;-35
2022/09/26 07:37:04;;;;;;;3.27;1.40;;;14.10;99.90;;;;;;5094170;28;20210;-36
2022/09/26 07:39:31;;;;;;;4.73;2.03;;;14.20;99.90;;;;;;5087361;28;20237;-35
2022/09/26 07:42:02;;;;;;;6.10;1.60;;;14.20;99.90;;;;;;5087672;28;20700;-36
2022/09/26 07:44:29;;;;;;;5.10;1.50;;;14.20;99.90;;;;;;5083084;28;20207;-35
2022/09/26 07:50:15;;;;;;;6.17;1.50;;;14.20;99.90;;;;;;5073619;28;20211;-35
2022/09/26 07:52:46;;;;;;;4.17;1.90;;;14.30;99.90;;;;;;5073965;28;20600;-35
2022/09/26 07:55:20;;;;;;;6.23;1.73;;;14.30;99.90;;;;;;5074325;28;20215;-35
2022/09/26 07:57:48;;;;;;;4.60;1.67;;;14.30;99.90;;;;;;5077769;28;20216;-36
2022/09/26 08:00:18;;;;;;;4.00;1.67;;;14.30;99.90;;;;;;5079681;28;20206;-35
2022/09/26 08:02:46;;;;;;;6.20;1.47;;;14.40;99.90;;;;;;5082188;28;20496;-35
2022/09/26 08:05:18;;;;;;;9.50;1.67;;;14.40;99.90;;;;;;5087703;28;20319;-35
2022/09/26 08:07:48;;;;;;;6.17;1.73;;;14.50;99.90;;;;;;5081362;28;20301;-35
2022/09/26 08:10:21;;;;;;;3.27;1.80;;;14.50;99.90;;;;;;5076873;28;20222;-35
2022/09/26 08:12:49;;;;;;;7.20;1.87;;;14.50;99.90;;;;;;5070504;28;20628;-35
2022/09/26 08:15:16;;;;;;;12.13;2.27;;;14.60;99.90;;;;;;5084003;28;20294;-35
2022/09/26 08:17:43;;;;;;;4.30;1.70;;;14.60;99.90;;;;;;5083062;28;20245;-35
2022/09/26 08:20:11;;;;;;;5.83;2.07;;;14.70;99.90;;;;;;5069916;28;20215;-35
2022/09/26 08:22:45;;;;;;;14.67;2.23;;;14.70;99.90;;;;;;5083646;28;20210;-36
2022/09/26 08:25:13;;;;;;;5.07;1.43;;;14.70;99.90;;;;;;5085043;28;20280;-35
2022/09/26 08:27:42;;;;;;;6.20;1.67;;;14.80;99.90;;;;;;5077588;28;20207;-34
2022/09/26 08:30:12;;;;;;;3.87;1.60;;;14.80;99.90;;;;;;5085228;28;20203;-34
2022/09/26 08:32:40;;;;;;;3.17;1.60;;;14.80;99.90;;;;;;5075766;28;20199;-34
2022/09/26 08:35:13;;;;;;;5.90;1.47;;;14.80;99.90;;;;;;5081307;28;20219;-34
2022/09/26 08:37:41;;;;;;;3.07;1.87;;;14.80;99.90;;;;;;5069861;28;20692;-34
2022/09/26 08:40:11;;;;;;;13.47;2.53;;;14.90;99.90;;;;;;5066715;28;20567;-34
2022/09/26 08:42:52;;;;;;;5.97;1.40;;;14.90;99.90;;;;;;5079924;28;20435;-35
2022/09/26 08:48:37;;;;;;;10.33;2.33;;;15.00;99.90;;;;;;5068970;28;20211;-36
2022/09/26 08:51:11;;;;;;;12.93;2.40;;;15.00;99.90;;;;;;5081738;28;20202;-36
2022/09/26 08:53:52;;;;;;;14.00;2.57;;;15.00;99.90;;;;;;5078680;28;20191;-35
2022/09/26 08:56:26;;;;;;;8.50;2.33;;;15.10;99.90;;;;;;5085682;28;20211;-35
2022/09/26 08:58:57;;;;;;;8.47;1.90;;;15.10;99.90;;;;;;5082125;28;20206;-36
2022/09/26 09:01:28;;;;;;;10.90;1.40;;;15.10;99.90;;;;;;5076449;28;20207;-35
2022/09/26 09:04:43;;;;;;;3.13;1.33;;;15.10;99.90;;;;;;5083977;28;20222;-33
2022/09/26 09:07:21;;;;;;;3.87;1.07;;;15.20;99.90;;;;;;5087341;28;20211;-35
2022/09/26 09:09:53;;;;;;;7.00;1.40;;;15.20;99.90;;;;;;5073655;28;20191;-34
2022/09/26 09:12:46;;;;;;;4.30;1.40;;;15.20;99.90;;;;;;5083109;28;20215;-36
2022/09/26 09:15:29;;;;;;;6.07;1.30;;;15.20;99.90;;;;;;5089561;28;20206;-36
2022/09/26 09:18:33;;;;;;;6.77;1.40;;;15.20;99.90;;;;;;5080936;28;20250;-33
2022/09/26 09:21:34;;;;;;;5.57;1.80;;;15.30;99.90;;;;;;5070844;28;20202;-35
2022/09/26 09:24:33;;;;;;;8.80;1.90;;;15.30;99.90;;;;;;5089420;28;20237;-34
2022/09/26 09:27:25;;;;;;;4.93;1.50;;;15.30;99.90;;;;;;5072705;28;20736;-35
2022/09/26 09:30:38;;;;;;;5.07;1.70;;;15.40;99.90;;;;;;5068675;28;20222;-34
2022/09/26 09:33:21;;;;;;;4.90;2.17;;;15.40;99.90;;;;;;5082715;28;20202;-33
2022/09/26 09:35:50;;;;;;;8.40;1.70;;;15.40;99.90;;;;;;5066624;28;20211;-34
2022/09/26 09:38:21;;;;;;;2.63;1.33;;;15.40;99.90;;;;;;5079264;28;20211;-34
2022/09/26 09:41:11;;;;;;;4.73;1.23;;;15.50;99.90;;;;;;5081179;28;20267;-35
2022/09/26 09:43:58;;;;;;;2.97;1.40;;;15.50;99.90;;;;;;5073404;28;20195;-35
2022/09/26 09:46:33;;;;;;;3.63;1.37;;;15.60;99.90;;;;;;5079036;28;20295;-36
2022/09/26 09:49:20;;;;;;;5.43;1.60;;;15.60;99.90;;;;;;5070419;28;20214;-35
2022/09/26 09:51:58;;;;;;;4.90;1.40;;;15.60;99.90;;;;;;5081393;28;20233;-35
2022/09/26 09:54:52;;;;;;;6.53;1.60;;;15.60;99.90;;;;;;5075418;28;20239;-35
2022/09/26 09:57:19;;;;;;;5.37;1.70;;;15.60;99.90;;;;;;5072498;28;20322;-35
2022/09/26 10:00:09;;;;;;;5.00;1.40;;;15.60;99.90;;;;;;5079974;28;20206;-35
2022/09/26 10:02:48;;;;;;;3.67;1.63;;;15.60;99.90;;;;;;5079615;28;20201;-35
2022/09/26 10:05:34;;;;;;;4.97;1.60;;;15.60;99.90;;;;;;5071639;28;20298;-34
2022/09/26 10:08:08;;;;;;;5.53;1.80;;;15.60;99.90;;;;;;5081162;28;20218;-35
2022/09/26 10:10:59;;;;;;;8.27;2.00;;;15.60;99.90;;;;;;5082432;28;20236;-34
2022/09/26 10:13:30;;;;;;;4.00;1.70;;;15.60;99.90;;;;;;5079956;28;20318;-35
2022/09/26 10:16:04;;;;;;;2.90;1.60;;;15.60;99.90;;;;;;5081037;28;20317;-35
2022/09/26 10:18:32;;;;;;;3.17;1.30;;;15.60;99.90;;;;;;5064300;28;20660;-35
2022/09/26 10:21:47;;;;;;;2.80;1.20;;;15.60;99.90;;;;;;5078308;28;20681;-35
2022/09/26 10:24:26;;;;;;;6.07;2.07;;;15.70;99.90;;;;;;5079786;28;20199;-35
2022/09/26 10:26:55;;;;;;;7.83;1.73;;;15.70;99.90;;;;;;5079554;28;20576;-34
2022/09/26 10:29:33;;;;;;;7.70;1.70;;;15.70;99.90;;;;;;5081476;28;20296;-35
2022/09/26 10:32:01;;;;;;;4.93;1.67;;;15.70;99.90;;;;;;5083040;28;20249;-35
2022/09/26 10:34:34;;;;;;;3.90;1.60;;;15.80;99.90;;;;;;5083427;28;20325;-35
2022/09/26 10:37:27;;;;;;;6.23;2.00;;;15.80;99.90;;;;;;5081107;28;20681;-35
2022/09/26 10:42:46;;;;;;;4.97;1.63;;;15.80;99.90;;;;;;5081754;28;20280;-36
2022/09/26 10:45:26;;;;;;;4.13;1.30;;;15.80;99.90;;;;;;5083619;28;20331;-34
2022/09/26 10:47:54;;;;;;;2.00;1.20;;;15.80;99.90;;;;;;5055894;28;20620;-36
2022/09/26 10:50:28;;;;;;;4.57;1.40;;;15.80;99.90;;;;;;5084075;28;20603;-36
2022/09/26 10:53:13;;;;;;;5.60;1.57;;;15.80;99.90;;;;;;5082512;28;20705;-35
2022/09/26 10:55:56;;;;;;;10.37;2.00;;;15.80;99.90;;;;;;5080962;28;20219;-35
2022/09/26 10:58:28;;;;;;;7.30;1.90;;;15.80;99.90;;;;;;5083333;28;20207;-35
2022/09/26 11:00:59;;;;;;;4.20;1.43;;;15.80;99.90;;;;;;5078274;28;20226;-33
2022/09/26 11:03:45;;;;;;;6.73;1.63;;;15.80;99.90;;;;;;5083377;28;20195;-33
2022/09/26 11:06:25;;;;;;;6.90;1.40;;;15.80;99.90;;;;;;5083982;28;20272;-33
2022/09/26 11:09:01;;;;;;;3.70;1.40;;;15.80;99.90;;;;;;5080836;28;20281;-35
2022/09/26 11:11:35;;;;;;;4.60;1.50;;;15.80;99.90;;;;;;5082494;28;20191;-34
2022/09/26 11:14:06;;;;;;;4.87;1.70;;;15.80;99.90;;;;;;5079154;28;20209;-34
2022/09/26 11:16:47;;;;;;;5.03;1.47;;;15.80;99.90;;;;;;5082605;28;20236;-34
2022/09/26 11:19:38;;;;;;;4.37;1.60;;;15.80;99.90;;;;;;5067799;28;20649;-34
2022/09/26 11:22:24;;;;;;;6.20;1.70;;;15.80;99.90;;;;;;5070389;28;20585;-34
2022/09/26 11:25:03;;;;;;;4.17;1.43;;;15.80;99.90;;;;;;5081597;28;20219;-34
2022/09/26 11:27:42;;;;;;;5.23;1.90;;;15.70;99.90;;;;;;5081584;28;20234;-34
2022/09/26 11:30:11;;;;;;;4.23;1.63;;;15.70;99.90;;;;;;5074569;28;20697;-34
2022/09/26 11:32:43;;;;;;;4.10;1.63;;;15.70;99.90;;;;;;5082199;28;20230;-35
2022/09/26 11:35:46;;;;;;;4.77;1.80;;;15.70;99.90;;;;;;5071658;28;20216;-35
2022/09/26 11:38:38;;;;;;;5.43;1.60;;;15.70;99.90;;;;;;5078426;28;20312;-35
2022/09/26 11:41:37;;;;;;;3.20;1.70;;;15.70;99.90;;;;;;5068731;28;20207;-35
2022/09/26 11:44:16;;;;;;;1.60;1.20;;;15.70;99.90;;;;;;5088690;28;20209;-35
2022/09/26 11:47:02;;;;;;;2.23;1.30;;;15.70;99.90;;;;;;5082051;28;20733;-35
2022/09/26 11:50:02;;;;;;;4.60;1.50;;;15.70;99.90;;;;;;5084050;28;20268;-36
2022/09/26 11:52:50;;;;;;;4.60;1.70;;;15.70;99.90;;;;;;5085054;28;20208;-36
2022/09/26 11:55:49;;;;;;;3.70;1.53;;;15.70;99.90;;;;;;5078495;28;20199;-35
2022/09/26 11:58:23;;;;;;;6.57;1.63;;;15.70;99.90;;;;;;5086481;28;20219;-37
2022/09/26 12:01:26;;;;;;;3.23;1.83;;;15.70;99.90;;;;;;5085732;28;20285;-36
2022/09/26 12:04:12;;;;;;;4.67;1.47;;;15.70;99.90;;;;;;5084981;28;20199;-36
2022/09/26 12:07:03;;;;;;;2.43;1.40;;;15.70;99.90;;;;;;5084738;28;20333;-36
2022/09/26 12:09:48;;;;;;;3.17;1.47;;;15.70;99.90;;;;;;5085284;28;20325;-36
2022/09/26 12:12:51;;;;;;;5.00;1.27;;;15.70;99.90;;;;;;5085760;28;20207;-36
2022/09/26 12:15:26;;;;;;;5.20;1.43;;;15.70;99.90;;;;;;5083539;28;20218;-36
2022/09/26 12:18:03;;;;;;;4.63;1.33;;;15.70;99.90;;;;;;5086411;28;20291;-36
2022/09/26 12:20:36;;;;;;;2.43;1.27;;;15.70;99.90;;;;;;5087399;28;20238;-33
2022/09/26 12:23:15;;;;;;;4.13;1.33;;;15.70;99.90;;;;;;5086351;28;20222;-34
2022/09/26 12:25:54;;;;;;;2.43;1.13;;;15.80;99.90;;;;;;5062106;28;20233;-34
2022/09/26 12:29:04;;;;;;;3.27;1.40;;;15.80;99.90;;;;;;5085066;28;20222;-34
2022/09/26 12:31:43;;;;;;;2.97;1.20;;;15.80;99.90;;;;;;5084394;28;20206;-34
2022/09/26 12:34:38;;;;;;;5.03;1.13;;;15.80;99.90;;;;;;5085374;28;20195;-34
2022/09/26 12:37:51;;;;;;;2.60;1.10;;;15.80;99.90;;;;;;5076684;28;20241;-34
2022/09/26 12:40:52;;;;;;;4.73;1.13;;;15.80;99.90;;;;;;5100907;28;20202;-34
2022/09/26 12:43:56;;;;;;;5.83;1.50;;;15.80;99.90;;;;;;5081086;28;20671;-34
2022/09/26 12:46:48;;;;;;;5.30;1.33;;;15.80;99.90;;;;;;5084949;28;20680;-34
2022/09/26 12:49:21;;;;;;;3.10;1.30;;;15.80;99.90;;;;;;5085323;28;20218;-36
2022/09/26 12:51:53;;;;;;;2.97;1.20;;;15.80;99.90;;;;;;5083233;28;20219;-34
2022/09/26 12:54:40;;;;;;;3.33;0.90;;;15.80;99.90;;;;;;5084163;28;20503;-34
2022/09/26 12:57:07;;;;;;;4.53;1.20;;;15.80;99.90;;;;;;5083233;28;20202;-34
2022/09/26 13:00:20;;;;;;;2.90;1.07;;;15.80;99.90;;;;;;5085330;28;20587;-34
2022/09/26 13:02:53;;;;;;;3.27;1.40;;;15.80;99.90;;;;;;5084699;28;20213;-35
2022/09/26 13:05:26;;;;;;;2.70;1.20;;;15.80;99.90;;;;;;5086035;28;20195;-35
2022/09/26 13:08:08;;;;;;;3.33;1.10;;;15.80;99.90;;;;;;5087283;28;20219;-36
2022/09/26 13:10:47;;;;;;;2.67;1.20;;;15.80;99.90;;;;;;5081184;28;20207;-35
2022/09/26 13:13:42;;;;;;;3.53;1.17;;;15.80;99.90;;;;;;5083302;28;20325;-35
2022/09/26 13:16:18;;;;;;;2.83;1.10;;;15.80;99.90;;;;;;5077353;28;20383;-35
2022/09/26 13:19:02;;;;;;;3.17;1.30;;;15.80;99.90;;;;;;5084128;28;20325;-35
2022/09/26 13:21:40;;;;;;;3.47;1.10;;;15.80;99.90;;;;;;5084602;28;20739;-35
2022/09/26 13:24:18;;;;;;;3.13;1.30;;;15.80;99.90;;;;;;5081103;28;20202;-35
2022/09/26 13:26:51;;;;;;;3.83;1.30;;;15.80;99.90;;;;;;5076122;28;20230;-36
2022/09/26 13:29:32;;;;;;;1.40;1.10;;;15.80;99.90;;;;;;5083402;28;20207;-36
2022/09/26 13:32:16;;;;;;;2.60;1.13;;;15.80;99.90;;;;;;5077080;28;20198;-36
2022/09/26 13:35:02;;;;;;;1.20;0.70;;;15.80;99.90;;;;;;5068572;28;20215;-34
2022/09/26 13:37:51;;;;;;;3.13;1.00;;;15.80;99.90;;;;;;5082660;28;20198;-34
2022/09/26 13:40:39;;;;;;;2.73;0.90;;;15.80;99.90;;;;;;5084222;28;20300;-34
2022/09/26 13:43:23;;;;;;;2.20;1.27;;;15.80;99.90;;;;;;5084948;28;21015;-36
2022/09/26 13:46:14;;;;;;;11.27;1.60;;;15.80;99.90;;;;;;5081873;28;20338;-34
2022/09/26 13:48:52;;;;;;;2.70;1.10;;;15.80;99.90;;;;;;5081588;28;20198;-34
2022/09/26 13:51:44;;;;;;;3.87;1.30;;;15.70;99.90;;;;;;5083855;28;20210;-34